Time;durP1;ratioP1;P1;durP2;ratioP2;P2;SDS_P1;SDS_P2;PMS_P1;PMS_P2;Temp;Humidity;BMP_temperature;BMP_pressure;BME280_temperature;BME280_humidity;BME280_pressure;Samples;Min_cycle;Max_cycle;Signal;HPM_P1;HPM_P2
2023/01/27 00:00:31;;;;;;;19.23;14.33;;;1.20;99.90;;;;;;5027882;28;20213;-82
2023/01/27 00:02:57;;;;;;;19.80;13.20;;;1.10;99.90;;;;;;5023857;28;20182;-82
2023/01/27 00:05:22;;;;;;;19.50;13.57;;;1.50;99.90;;;;;;5023666;28;20197;-83
2023/01/27 00:07:48;;;;;;;21.40;15.17;;;1.20;99.90;;;;;;5027357;28;20179;-84
2023/01/27 00:10:16;;;;;;;26.13;15.97;;;1.20;99.90;;;;;;5024151;28;20189;-84
2023/01/27 00:15:30;;;;;;;22.65;14.07;;;1.30;99.90;;;;;;5038469;28;20243;-82
2023/01/27 00:17:55;;;;;;;21.67;13.75;;;1.40;99.90;;;;;;5025269;28;20188;-84
2023/01/27 00:25:59;;;;;;;25.25;15.25;;;1.20;99.90;;;;;;5047292;28;20184;-84
2023/01/27 00:28:25;;;;;;;23.02;14.65;;;1.10;99.90;;;;;;5024740;28;20186;-84
2023/01/27 00:30:51;;;;;;;21.10;14.38;;;0.90;99.90;;;;;;5022669;28;20174;-83
2023/01/27 00:33:23;;;;;;;20.70;13.85;;;1.20;99.90;;;;;;5028710;28;20189;-83
2023/01/27 00:35:49;;;;;;;20.00;13.23;;;0.80;99.90;;;;;;5029589;28;20181;-83
2023/01/27 00:38:14;;;;;;;18.80;13.07;;;1.70;99.90;;;;;;5028987;28;20292;-83
2023/01/27 00:41:13;;;;;;;16.93;13.07;;;1.20;99.90;;;;;;5025544;28;20232;-81
2023/01/27 00:43:25;;;;;;;21.98;13.02;;;1.10;99.90;;;;;;5045501;28;20269;-86
2023/01/27 00:45:51;;;;;;;20.23;13.13;;;0.60;99.90;;;;;;5029163;28;20288;-85
2023/01/27 00:48:16;;;;;;;16.97;11.20;;;1.30;99.90;;;;;;5050128;28;20725;-84
2023/01/27 00:50:42;;;;;;;19.83;13.30;;;1.10;99.90;;;;;;5028950;28;20452;-83
2023/01/27 00:53:07;;;;;;;16.50;12.03;;;1.20;99.90;;;;;;5030498;28;20198;-83
2023/01/27 00:55:33;;;;;;;18.53;12.97;;;0.80;99.90;;;;;;5025942;28;20210;-83
2023/01/27 00:57:58;;;;;;;16.40;11.97;;;1.10;99.90;;;;;;5029332;28;20818;-84
2023/01/27 01:00:24;;;;;;;16.70;11.43;;;1.30;99.90;;;;;;5025334;28;20209;-84
2023/01/27 01:02:49;;;;;;;22.33;12.90;;;0.80;99.90;;;;;;5026218;28;20265;-83
2023/01/27 01:05:15;;;;;;;20.90;13.90;;;1.90;99.90;;;;;;5028956;28;20201;-83
2023/01/27 01:07:41;;;;;;;17.70;14.27;;;1.20;99.90;;;;;;5023661;28;20186;-83
2023/01/27 01:10:06;;;;;;;18.60;13.40;;;1.30;99.90;;;;;;5027539;28;20489;-83
2023/01/27 01:12:32;;;;;;;21.73;13.60;;;1.00;99.90;;;;;;5028872;28;20212;-84
2023/01/27 01:14:57;;;;;;;16.90;12.97;;;0.40;99.90;;;;;;5026775;28;20497;-84
2023/01/27 01:17:23;;;;;;;21.10;14.00;;;1.10;99.90;;;;;;5029601;28;20240;-85
2023/01/27 01:19:48;;;;;;;20.40;14.77;;;1.20;99.90;;;;;;5026357;28;20206;-85
2023/01/27 01:22:14;;;;;;;21.30;13.00;;;1.20;99.90;;;;;;5036338;28;20418;-84
2023/01/27 01:24:39;;;;;;;22.23;14.70;;;1.30;99.90;;;;;;5024644;28;20288;-85
2023/01/27 01:27:05;;;;;;;19.63;14.23;;;1.50;99.90;;;;;;5026516;28;20602;-84
2023/01/27 01:29:30;;;;;;;21.07;14.20;;;1.20;99.90;;;;;;5043119;28;20185;-83
2023/01/27 01:31:57;;;;;;;22.43;14.30;;;1.10;99.90;;;;;;5045201;28;20193;-83
2023/01/27 01:34:22;;;;;;;20.30;14.13;;;0.90;99.90;;;;;;5023143;28;20588;-83
2023/01/27 01:36:48;;;;;;;22.67;13.80;;;1.50;99.90;;;;;;5021730;28;20183;-84
2023/01/27 01:39:13;;;;;;;23.63;14.73;;;1.50;99.90;;;;;;5039096;28;20263;-83
2023/01/27 01:41:39;;;;;;;17.60;13.10;;;0.90;99.90;;;;;;5026137;28;20186;-84
2023/01/27 01:44:29;;;;;;;30.40;14.60;;;1.00;99.90;;;;;;5025291;28;20210;-83
2023/01/27 01:46:54;;;;;;;20.50;15.00;;;0.90;99.90;;;;;;5026922;28;20557;-81
2023/01/27 01:49:26;;;;;;;22.30;15.80;;;1.00;99.90;;;;;;5025238;28;20189;-83
2023/01/27 01:52:09;;;;;;;23.85;15.93;;;1.10;99.90;;;;;;5045961;28;20852;-83
2023/01/27 01:54:43;;;;;;;21.38;13.38;;;1.40;99.90;;;;;;5027959;28;20631;-82
2023/01/27 01:57:17;;;;;;;19.17;13.95;;;1.20;99.90;;;;;;5033270;28;20664;-83
2023/01/27 01:59:50;;;;;;;22.02;15.20;;;1.10;99.90;;;;;;5048259;28;20206;-83
2023/01/27 02:02:19;;;;;;;18.05;13.48;;;1.20;99.90;;;;;;5041055;28;20272;-85
2023/01/27 02:04:51;;;;;;;20.98;14.10;;;1.30;99.90;;;;;;5046545;28;20275;-84
2023/01/27 02:07:36;;;;;;;21.00;14.50;;;1.00;99.90;;;;;;5029793;28;20247;-84
2023/01/27 02:10:02;;;;;;;19.77;12.65;;;1.10;99.90;;;;;;5024211;28;20196;-84
2023/01/27 02:12:27;;;;;;;20.48;13.85;;;1.20;99.90;;;;;;5045027;28;20185;-84
2023/01/27 02:14:53;;;;;;;18.73;12.37;;;1.40;99.90;;;;;;5042445;28;20848;-83
2023/01/27 02:17:19;;;;;;;21.52;15.25;;;1.20;99.90;;;;;;5042104;28;20193;-83
2023/01/27 02:20:01;;;;;;;17.00;12.00;;;1.10;99.90;;;;;;5041620;28;20248;-84
2023/01/27 02:22:58;;;;;;;22.25;12.35;;;1.10;99.90;;;;;;5039923;28;20181;-84
2023/01/27 02:25:47;;;;;;;18.90;11.63;;;1.00;99.90;;;;;;5020744;28;20236;-81
2023/01/27 02:28:12;;;;;;;17.83;11.80;;;1.10;99.90;;;;;;5035173;28;20197;-85
2023/01/27 02:30:38;;;;;;;15.23;10.63;;;1.00;99.90;;;;;;5024462;28;20186;-85
2023/01/27 02:33:12;;;;;;;19.00;11.70;;;0.70;99.90;;;;;;5022104;28;20200;-81
2023/01/27 02:35:50;;;;;;;16.92;11.80;;;1.80;99.90;;;;;;5024543;28;20210;-84
2023/01/27 02:38:17;;;;;;;18.65;11.88;;;1.40;99.90;;;;;;5025574;28;20193;-84
2023/01/27 02:40:45;;;;;;;13.98;9.95;;;0.90;99.90;;;;;;5025193;28;20241;-85
2023/01/27 02:43:11;;;;;;;14.32;10.52;;;1.20;99.90;;;;;;5023279;28;20182;-85
2023/01/27 02:45:36;;;;;;;16.10;10.80;;;1.10;99.90;;;;;;5023045;28;20212;-84
2023/01/27 02:48:02;;;;;;;14.97;10.03;;;1.10;99.90;;;;;;5023399;28;20205;-83
2023/01/27 02:50:28;;;;;;;16.53;11.63;;;1.40;99.90;;;;;;5030137;28;20189;-83
2023/01/27 02:52:53;;;;;;;16.20;10.90;;;1.50;99.90;;;;;;5041821;28;20208;-85
2023/01/27 02:55:19;;;;;;;13.10;9.40;;;1.40;99.90;;;;;;5027203;28;20275;-84
2023/01/27 02:57:44;;;;;;;15.43;9.90;;;4.20;99.90;;;;;;5023326;28;20194;-83
2023/01/27 03:00:12;;;;;;;14.20;9.67;;;1.50;99.90;;;;;;5027686;28;20216;-83
2023/01/27 03:02:38;;;;;;;14.52;10.38;;;1.50;99.90;;;;;;5025754;28;20182;-84
2023/01/27 03:05:04;;;;;;;15.80;10.43;;;1.70;99.90;;;;;;5027477;28;20269;-84
2023/01/27 03:07:29;;;;;;;13.32;8.77;;;1.60;99.90;;;;;;5025930;28;20491;-84
2023/01/27 03:09:55;;;;;;;10.57;8.43;;;1.10;99.90;;;;;;5041146;28;20600;-83
2023/01/27 03:12:21;;;;;;;14.20;9.87;;;1.90;99.90;;;;;;5045192;28;20658;-82
2023/01/27 03:20:17;;;;;;;12.98;8.80;;;1.30;99.90;;;;;;5039094;28;20577;-83
2023/01/27 03:22:42;;;;;;;14.40;9.67;;;1.30;99.90;;;;;;5039768;28;20186;-85
2023/01/27 03:25:08;;;;;;;15.10;10.43;;;0.70;99.90;;;;;;5045013;28;20202;-85
2023/01/27 03:27:34;;;;;;;17.20;10.60;;;1.60;99.90;;;;;;5020936;28;20783;-85
2023/01/27 03:30:00;;;;;;;12.90;10.15;;;1.40;99.90;;;;;;5016080;28;20187;-83
2023/01/27 03:32:29;;;;;;;14.27;10.00;;;0.70;99.90;;;;;;5020757;28;20197;-83
2023/01/27 03:34:59;;;;;;;12.20;9.10;;;1.50;99.90;;;;;;5027298;28;21027;-83
2023/01/27 03:48:27;;;;;;;13.93;10.98;;;0.90;99.90;;;;;;5043154;28;20244;-84
2023/01/27 03:50:56;;;;;;;12.90;8.68;;;1.40;99.90;;;;;;5025840;28;20609;-84
2023/01/27 03:53:22;;;;;;;14.30;10.65;;;1.70;99.90;;;;;;5023432;28;20606;-84
2023/01/27 03:55:48;;;;;;;14.03;11.10;;;1.50;99.90;;;;;;5024707;28;20174;-85
2023/01/27 03:58:22;;;;;;;14.60;10.50;;;1.80;99.90;;;;;;5029756;28;20697;-84
2023/01/27 04:00:53;;;;;;;13.93;9.07;;;1.50;99.90;;;;;;5024905;28;20637;-84
2023/01/27 04:08:50;;;;;;;15.93;12.30;;;1.20;99.90;;;;;;5044592;28;20201;-85
2023/01/27 04:14:02;;;;;;;16.23;11.70;;;1.50;99.90;;;;;;5039818;28;20235;-83
2023/01/27 04:16:29;;;;;;;15.98;11.48;;;1.30;99.90;;;;;;5026442;28;20192;-83
2023/01/27 04:18:57;;;;;;;16.52;11.55;;;0.80;99.90;;;;;;5024486;28;20210;-82
2023/01/27 04:21:24;;;;;;;12.35;9.95;;;1.30;99.90;;;;;;5040797;28;20247;-85
2023/01/27 04:23:51;;;;;;;14.93;11.10;;;2.00;99.90;;;;;;5026632;28;20190;-86
2023/01/27 04:26:16;;;;;;;17.08;12.57;;;1.40;99.90;;;;;;5023488;28;20179;-83
2023/01/27 04:28:42;;;;;;;16.15;11.52;;;1.50;99.90;;;;;;5044201;28;20216;-83
2023/01/27 04:31:08;;;;;;;15.47;12.00;;;1.70;99.90;;;;;;5026239;28;20218;-85
2023/01/27 04:33:33;;;;;;;14.80;11.00;;;1.40;99.90;;;;;;5016932;28;20577;-84
2023/01/27 04:35:59;;;;;;;14.60;11.40;;;1.70;99.90;;;;;;5043541;28;20448;-84
2023/01/27 04:38:24;;;;;;;17.00;12.37;;;2.00;99.90;;;;;;5042415;28;20239;-83
2023/01/27 04:40:50;;;;;;;20.37;12.30;;;1.40;99.90;;;;;;5024889;28;20206;-83
2023/01/27 04:43:15;;;;;;;16.53;12.07;;;1.60;99.90;;;;;;5029569;28;20672;-83
2023/01/27 04:45:41;;;;;;;17.07;12.47;;;1.60;99.90;;;;;;5021811;28;20186;-83
2023/01/27 04:48:06;;;;;;;19.23;13.60;;;1.60;99.90;;;;;;5044543;28;20277;-83
2023/01/27 04:50:32;;;;;;;17.77;12.97;;;1.50;99.90;;;;;;5024359;28;20204;-83
2023/01/27 04:52:58;;;;;;;17.93;12.43;;;1.10;99.90;;;;;;5044720;28;20226;-83
2023/01/27 04:55:23;;;;;;;18.00;13.10;;;1.50;99.90;;;;;;5043071;28;20275;-83
2023/01/27 04:57:49;;;;;;;17.60;13.07;;;1.40;99.90;;;;;;5042514;28;20269;-84
2023/01/27 05:00:15;;;;;;;19.47;13.70;;;1.70;99.90;;;;;;5040866;28;20736;-84
2023/01/27 05:02:41;;;;;;;17.85;13.65;;;1.40;99.90;;;;;;5035119;28;20277;-83
2023/01/27 05:05:08;;;;;;;20.17;16.00;;;1.30;99.90;;;;;;5042533;28;20293;-85
2023/01/27 05:07:33;;;;;;;19.90;16.15;;;1.40;99.90;;;;;;5041222;28;20188;-85
2023/01/27 05:09:59;;;;;;;20.70;14.53;;;;;;;;;;5016606;28;21431;-85
2023/01/27 05:12:25;;;;;;;20.02;14.88;;;1.40;99.90;;;;;;5041713;28;24522;-84
2023/01/27 05:14:50;;;;;;;20.73;16.03;;;1.70;99.90;;;;;;5018897;28;20206;-85
2023/01/27 05:17:16;;;;;;;19.53;14.57;;;1.50;99.90;;;;;;5021408;28;20229;-83
2023/01/27 05:19:41;;;;;;;21.40;15.73;;;1.50;99.90;;;;;;5045708;28;20296;-84
2023/01/27 05:22:08;;;;;;;21.10;14.40;;;2.00;99.90;;;;;;5023494;28;20641;-84
2023/01/27 05:24:33;;;;;;;19.30;15.43;;;1.90;99.90;;;;;;5047578;28;20198;-82
2023/01/27 05:26:59;;;;;;;21.53;16.10;;;1.50;99.90;;;;;;5024746;28;20236;-83
2023/01/27 05:29:24;;;;;;;18.33;14.33;;;1.40;99.90;;;;;;5026885;28;20197;-83
2023/01/27 05:31:50;;;;;;;18.80;14.37;;;1.60;99.90;;;;;;5028896;28;20193;-84
2023/01/27 05:34:15;;;;;;;18.90;13.37;;;1.50;99.90;;;;;;5041767;28;20217;-83
2023/01/27 05:36:41;;;;;;;27.30;14.87;;;1.70;99.90;;;;;;5044479;28;20266;-85
2023/01/27 05:39:09;;;;;;;22.90;16.00;;;2.20;99.90;;;;;;5028689;28;20249;-82
2023/01/27 05:41:34;;;;;;;20.33;15.23;;;1.40;99.90;;;;;;5041776;28;20198;-84
2023/01/27 05:44:01;;;;;;;22.53;16.43;;;1.60;99.90;;;;;;5024222;28;20230;-83
2023/01/27 05:46:28;;;;;;;22.48;14.88;;;1.60;99.90;;;;;;5022948;28;20601;-85
2023/01/27 05:48:56;;;;;;;19.17;15.50;;;2.20;99.90;;;;;;5023949;28;20285;-85
2023/01/27 05:51:23;;;;;;;21.30;14.85;;;2.10;99.90;;;;;;5043849;28;20198;-84
2023/01/27 05:53:49;;;;;;;20.23;15.05;;;1.70;99.90;;;;;;5045956;28;20220;-84
2023/01/27 05:56:16;;;;;;;20.90;14.60;;;1.70;99.90;;;;;;5044979;28;20185;-86
2023/01/27 05:58:45;;;;;;;18.15;14.45;;;2.10;99.90;;;;;;5043791;28;20186;-85
2023/01/27 06:01:22;;;;;;;20.77;15.57;;;1.70;99.90;;;;;;5021503;28;20725;-82
2023/01/27 06:03:48;;;;;;;23.23;15.13;;;2.10;99.90;;;;;;5042807;28;20213;-84
2023/01/27 06:06:16;;;;;;;20.90;14.67;;;1.90;99.90;;;;;;5042603;28;20196;-83
2023/01/27 06:08:42;;;;;;;17.23;13.63;;;1.70;99.90;;;;;;5024042;28;20440;-83
2023/01/27 06:11:08;;;;;;;18.83;15.15;;;1.50;99.90;;;;;;5026029;28;20195;-84
2023/01/27 06:13:34;;;;;;;19.50;13.73;;;1.40;99.90;;;;;;5044089;28;20202;-83
2023/01/27 06:16:02;;;;;;;20.27;14.87;;;1.60;99.90;;;;;;5029880;28;20188;-84
2023/01/27 06:18:27;;;;;;;20.50;13.57;;;1.50;99.90;;;;;;5046789;28;20193;-84
2023/01/27 06:21:00;;;;;;;20.17;13.93;;;1.60;99.90;;;;;;5028449;28;20218;-82
2023/01/27 06:23:26;;;;;;;22.00;15.35;;;1.50;99.90;;;;;;5030324;28;20247;-83
2023/01/27 06:25:52;;;;;;;18.40;13.77;;;1.50;99.90;;;;;;5024140;28;20910;-84
2023/01/27 06:28:18;;;;;;;23.02;16.52;;;1.20;99.90;;;;;;5026232;28;20200;-84
2023/01/27 06:30:44;;;;;;;21.57;14.37;;;1.40;99.90;;;;;;5029445;28;20186;-82
2023/01/27 06:33:10;;;;;;;20.87;13.97;;;1.50;99.90;;;;;;5046967;28;20453;-83
2023/01/27 06:35:38;;;;;;;19.67;14.30;;;1.40;99.90;;;;;;5041543;28;20499;-82
2023/01/27 06:38:05;;;;;;;20.20;13.80;;;1.40;99.90;;;;;;5025743;28;20494;-83
2023/01/27 06:40:31;;;;;;;19.55;13.32;;;1.40;99.90;;;;;;5028850;28;20209;-83
2023/01/27 06:42:58;;;;;;;16.80;11.90;;;1.20;99.90;;;;;;5025285;28;20315;-84
2023/01/27 06:45:23;;;;;;;16.23;12.82;;;1.60;99.90;;;;;;5045348;28;20194;-82
2023/01/27 06:47:59;;;;;;;17.63;11.80;;;1.60;99.90;;;;;;5041847;28;20194;-89
2023/01/27 06:50:26;;;;;;;17.67;13.35;;;1.20;99.90;;;;;;5023347;28;20191;-89
2023/01/27 06:52:57;;;;;;;16.40;12.00;;;1.60;99.90;;;;;;5027444;28;20212;-89
2023/01/27 06:55:23;;;;;;;19.58;12.68;;;1.90;99.90;;;;;;5030010;28;20212;-92
2023/01/27 06:57:48;;;;;;;17.13;11.57;;;2.00;99.90;;;;;;5032165;28;20641;-90
2023/01/27 07:00:15;;;;;;;18.13;11.53;;;1.40;99.90;;;;;;5030984;28;20201;-88
2023/01/27 07:02:41;;;;;;;18.23;12.10;;;1.50;99.90;;;;;;5009395;28;20182;-88
2023/01/27 07:05:07;;;;;;;20.42;12.15;;;1.60;99.90;;;;;;5033364;28;20201;-91
2023/01/27 07:07:33;;;;;;;16.93;12.13;;;1.30;99.90;;;;;;5030250;28;20182;-84
2023/01/27 07:09:58;;;;;;;16.33;10.97;;;1.60;99.90;;;;;;5026623;28;20181;-84
2023/01/27 07:12:24;;;;;;;20.90;13.30;;;1.90;99.90;;;;;;5024213;28;20231;-85
2023/01/27 07:14:52;;;;;;;15.37;12.37;;;1.60;99.90;;;;;;5025016;28;20197;-85
2023/01/27 07:17:18;;;;;;;15.90;12.07;;;2.00;99.90;;;;;;5040238;28;20553;-85
2023/01/27 07:19:43;;;;;;;19.70;14.53;;;1.70;99.90;;;;;;5021741;28;20256;-85
2023/01/27 07:22:09;;;;;;;16.90;13.23;;;1.60;99.90;;;;;;5020316;28;20182;-85
2023/01/27 07:24:34;;;;;;;14.23;10.73;;;2.10;99.90;;;;;;5038452;28;20234;-83
2023/01/27 07:27:00;;;;;;;18.37;12.67;;;1.70;99.90;;;;;;5039387;28;20475;-84
2023/01/27 07:29:26;;;;;;;16.98;12.15;;;1.90;99.90;;;;;;5023699;28;20689;-83
2023/01/27 07:31:51;;;;;;;18.97;13.40;;;1.40;99.90;;;;;;5039829;28;20197;-84
2023/01/27 07:34:17;;;;;;;16.10;12.70;;;1.50;99.90;;;;;;5019085;28;22109;-82
2023/01/27 07:36:42;;;;;;;18.60;11.97;;;1.30;99.90;;;;;;5040663;28;21877;-83
2023/01/27 07:39:08;;;;;;;18.07;11.60;;;1.80;99.90;;;;;;5023428;28;20681;-82
2023/01/27 07:41:33;;;;;;;17.60;12.43;;;2.40;99.90;;;;;;5039264;28;20186;-83
2023/01/27 07:43:59;;;;;;;13.70;10.27;;;1.40;99.90;;;;;;5021915;28;20213;-80
2023/01/27 07:46:25;;;;;;;16.00;11.40;;;1.90;99.90;;;;;;5039806;28;20194;-80
2023/01/27 07:48:50;;;;;;;17.30;11.57;;;2.10;99.90;;;;;;5044502;28;20272;-81
2023/01/27 07:51:16;;;;;;;15.90;11.00;;;1.70;99.90;;;;;;5026508;28;20190;-81
2023/01/27 07:53:41;;;;;;;15.53;10.57;;;1.90;99.90;;;;;;5034463;28;20194;-83
2023/01/27 07:56:10;;;;;;;15.47;11.60;;;2.10;99.90;;;;;;5044133;28;20365;-83
2023/01/27 07:58:40;;;;;;;16.02;11.40;;;2.10;99.90;;;;;;5037862;28;20445;-84
2023/01/27 08:01:07;;;;;;;14.52;10.77;;;1.80;99.90;;;;;;5015713;28;20194;-84
2023/01/27 08:03:33;;;;;;;15.35;11.10;;;2.10;99.90;;;;;;5020132;28;20205;-84
2023/01/27 08:06:06;;;;;;;15.20;10.63;;;2.20;99.90;;;;;;5040956;28;21641;-87
2023/01/27 08:08:32;;;;;;;18.08;11.85;;;2.10;99.90;;;;;;5020239;28;20491;-85
2023/01/27 08:11:09;;;;;;;16.37;10.87;;;2.00;99.90;;;;;;5021937;28;20189;-84
2023/01/27 08:13:35;;;;;;;13.70;10.18;;;2.20;99.90;;;;;;5025620;28;20205;-85
2023/01/27 08:16:04;;;;;;;16.70;11.15;;;1.40;99.90;;;;;;5025712;28;20553;-82
2023/01/27 08:18:32;;;;;;;13.63;9.75;;;2.00;99.90;;;;;;5044839;28;20260;-85
2023/01/27 08:20:59;;;;;;;13.68;10.15;;;1.90;99.90;;;;;;5023297;28;20236;-84
2023/01/27 08:23:25;;;;;;;14.75;10.75;;;1.70;99.90;;;;;;5026289;28;20239;-89
2023/01/27 08:25:56;;;;;;;15.97;10.87;;;1.70;99.90;;;;;;5024259;28;20273;-87
2023/01/27 08:28:23;;;;;;;15.80;10.05;;;2.10;99.90;;;;;;5029203;28;20223;-87
2023/01/27 08:30:50;;;;;;;14.18;10.15;;;1.70;99.90;;;;;;5020715;28;20569;-86
2023/01/27 08:33:20;;;;;;;15.35;10.40;;;1.90;99.90;;;;;;5024774;28;20190;-87
2023/01/27 08:35:49;;;;;;;14.30;10.05;;;1.70;99.90;;;;;;5027871;28;20181;-89
2023/01/27 08:38:17;;;;;;;14.60;10.93;;;2.30;99.90;;;;;;5030934;28;20212;-89
2023/01/27 08:40:43;;;;;;;14.40;9.68;;;1.90;99.90;;;;;;5021824;28;20213;-91
2023/01/27 08:43:08;;;;;;;13.00;9.52;;;1.70;99.90;;;;;;5044003;28;20194;-89
2023/01/27 08:45:35;;;;;;;13.77;10.33;;;1.70;99.90;;;;;;5045857;28;20560;-88
2023/01/27 08:48:01;;;;;;;13.75;9.75;;;2.30;99.90;;;;;;5031870;28;20649;-85
2023/01/27 08:50:29;;;;;;;14.13;9.85;;;1.90;99.90;;;;;;5029294;28;20606;-86
2023/01/27 08:52:57;;;;;;;15.20;10.55;;;1.70;99.90;;;;;;5030448;28;20196;-88
2023/01/27 08:55:25;;;;;;;15.55;11.02;;;1.70;99.90;;;;;;5030000;28;20198;-87
2023/01/27 08:57:50;;;;;;;14.55;9.93;;;2.20;99.90;;;;;;5028306;28;20192;-87
2023/01/27 09:00:16;;;;;;;13.37;9.67;;;2.20;99.90;;;;;;5029780;28;20210;-89
2023/01/27 09:02:42;;;;;;;15.33;9.30;;;2.00;99.90;;;;;;5031175;28;20228;-87
2023/01/27 09:05:08;;;;;;;14.85;9.68;;;1.90;99.90;;;;;;5027666;28;20464;-87
2023/01/27 09:07:33;;;;;;;17.00;9.37;;;1.70;99.90;;;;;;5050574;28;20201;-84
2023/01/27 09:09:59;;;;;;;12.33;8.57;;;1.70;99.90;;;;;;5033696;28;20243;-85
2023/01/27 09:12:25;;;;;;;14.87;9.13;;;2.30;99.90;;;;;;5029800;28;20650;-87
2023/01/27 09:14:50;;;;;;;12.83;8.63;;;1.80;99.90;;;;;;5030113;28;20252;-87
2023/01/27 09:17:18;;;;;;;13.43;9.07;;;1.30;99.90;;;;;;5059881;28;20202;-93
2023/01/27 09:19:45;;;;;;;15.80;9.07;;;1.50;99.90;;;;;;5054578;28;20213;-92
2023/01/27 09:22:11;;;;;;;13.32;9.88;;;1.40;99.90;;;;;;5052834;28;20184;-94
2023/01/27 09:24:36;;;;;;;12.63;9.20;;;1.60;99.90;;;;;;5054108;28;20218;-93
2023/01/27 09:27:02;;;;;;;14.10;9.77;;;1.70;99.90;;;;;;5039673;28;20190;-80
2023/01/27 09:29:28;;;;;;;14.30;9.93;;;1.60;99.90;;;;;;5050417;28;20190;-83
2023/01/27 09:31:53;;;;;;;11.90;8.35;;;1.50;99.90;;;;;;5048981;28;20190;-84
2023/01/27 09:34:19;;;;;;;12.43;9.20;;;1.30;99.90;;;;;;5027495;28;20221;-86
2023/01/27 09:36:51;;;;;;;14.40;9.70;;;1.80;99.90;;;;;;5024241;28;20367;-87
2023/01/27 09:39:18;;;;;;;17.45;11.55;;;1.70;99.90;;;;;;5030594;28;20218;-89
2023/01/27 09:42:06;;;;;;;15.98;11.05;;;1.70;99.90;;;;;;5047549;28;20270;-89
2023/01/27 09:44:50;;;;;;;15.18;10.73;;;1.60;99.90;;;;;;5043048;28;20216;-92
2023/01/27 09:47:37;;;;;;;18.35;11.25;;;1.20;99.90;;;;;;5028232;28;20201;-87
2023/01/27 09:50:39;;;;;;;14.32;9.65;;;1.50;99.90;;;;;;5030305;28;20591;-87
2023/01/27 09:53:31;;;;;;;17.58;10.80;;;1.70;99.90;;;;;;5038614;28;20193;-88
2023/01/27 09:56:07;;;;;;;15.43;9.60;;;1.50;99.90;;;;;;5031134;28;20213;-90
2023/01/27 09:59:03;;;;;;;16.30;10.27;;;1.90;99.90;;;;;;5051642;28;20181;-89
2023/01/27 10:01:42;;;;;;;17.33;10.43;;;1.60;99.90;;;;;;5027436;28;20213;-85
2023/01/27 10:04:44;;;;;;;19.65;11.20;;;1.90;99.90;;;;;;5033034;28;20213;-89
2023/01/27 10:07:52;;;;;;;16.83;11.13;;;1.70;99.90;;;;;;5028496;28;20214;-91
2023/01/27 10:10:32;;;;;;;18.80;11.98;;;1.80;99.90;;;;;;5005725;28;20193;-91
2023/01/27 10:13:30;;;;;;;19.30;11.82;;;1.90;99.90;;;;;;5044997;28;20181;-85
2023/01/27 10:16:33;;;;;;;18.23;10.77;;;1.90;99.90;;;;;;5001607;28;20207;-89
2023/01/27 10:19:05;;;;;;;17.83;10.13;;;2.00;99.90;;;;;;5049805;28;20261;-86
2023/01/27 10:21:42;;;;;;;17.75;10.82;;;1.50;99.90;;;;;;5046381;28;20260;-86
2023/01/27 10:24:31;;;;;;;18.77;11.57;;;2.30;99.90;;;;;;5023551;28;20202;-87
2023/01/27 10:27:15;;;;;;;17.27;10.15;;;1.90;99.90;;;;;;5038513;28;20193;-86
2023/01/27 10:30:13;;;;;;;13.52;9.45;;;2.00;99.90;;;;;;5026958;28;20550;-88
2023/01/27 10:32:44;;;;;;;13.50;8.73;;;1.80;99.90;;;;;;5024472;28;20182;-89
2023/01/27 10:35:22;;;;;;;13.40;8.98;;;2.00;99.90;;;;;;5028680;28;20222;-90
2023/01/27 10:37:56;;;;;;;13.25;8.07;;;2.20;99.90;;;;;;5029326;28;20177;-89
2023/01/27 10:40:52;;;;;;;14.68;8.95;;;2.40;99.90;;;;;;5030137;28;20213;-89
2023/01/27 10:43:44;;;;;;;14.52;8.02;;;2.40;99.90;;;;;;5023829;28;20183;-91
2023/01/27 10:46:28;;;;;;;11.55;8.10;;;2.40;99.90;;;;;;5026833;28;20202;-91
2023/01/27 10:49:37;;;;;;;13.10;8.88;;;2.60;99.90;;;;;;5050640;28;20177;-89
2023/01/27 10:52:15;;;;;;;15.98;9.13;;;2.50;99.90;;;;;;4955608;28;20180;-89
2023/01/27 10:55:10;;;;;;;13.13;8.68;;;2.40;99.90;;;;;;4945901;28;20204;-89
2023/01/27 10:57:43;;;;;;;12.45;8.50;;;2.50;99.90;;;;;;5011487;28;20242;-89
2023/01/27 11:00:33;;;;;;;14.73;9.73;;;2.10;99.90;;;;;;5025729;28;20214;-88
2023/01/27 11:03:20;;;;;;;13.00;9.02;;;2.30;99.90;;;;;;5026852;28;20186;-84
2023/01/27 11:06:07;;;;;;;13.25;7.57;;;2.70;99.90;;;;;;5040017;28;20209;-85
2023/01/27 11:08:35;;;;;;;13.35;8.77;;;2.50;99.90;;;;;;5022334;28;20619;-84
2023/01/27 11:14:00;;;;;;;12.18;7.80;;;2.50;99.90;;;;;;5045144;28;20235;-86
2023/01/27 11:16:31;;;;;;;12.20;8.27;;;2.00;99.90;;;;;;5047570;28;20178;-86
2023/01/27 11:19:02;;;;;;;13.68;9.35;;;2.30;99.90;;;;;;5038568;28;20190;-84
2023/01/27 11:21:30;;;;;;;12.57;8.25;;;2.40;99.90;;;;;;5039339;28;20284;-85
2023/01/27 11:23:59;;;;;;;14.55;8.60;;;2.40;99.90;;;;;;5024049;28;20202;-84
2023/01/27 11:26:45;;;;;;;14.95;7.40;;;2.40;99.90;;;;;;5023293;28;20181;-85
2023/01/27 11:29:35;;;;;;;11.95;7.93;;;2.80;99.90;;;;;;5041684;28;20280;-84
2023/01/27 11:32:12;;;;;;;15.40;8.77;;;2.20;99.90;;;;;;5020122;28;20195;-83
2023/01/27 11:34:40;;;;;;;18.95;9.30;;;2.40;99.90;;;;;;5040041;28;20617;-82
2023/01/27 11:37:18;;;;;;;12.50;9.20;;;2.30;99.90;;;;;;5042452;28;20265;-84
2023/01/27 11:39:44;;;;;;;17.00;8.13;;;2.50;99.90;;;;;;5043168;28;20234;-82
2023/01/27 11:42:10;;;;;;;13.50;8.43;;;2.70;99.90;;;;;;5022284;28;20279;-81
2023/01/27 11:44:36;;;;;;;14.93;7.57;;;2.70;99.90;;;;;;5041331;28;20975;-83
2023/01/27 11:47:06;;;;;;;11.40;8.02;;;2.30;99.90;;;;;;5019235;28;20242;-82
2023/01/27 11:49:37;;;;;;;11.25;8.05;;;4.60;99.90;;;;;;5044974;28;20188;-81
2023/01/27 11:52:16;;;;;;;11.52;7.47;;;2.20;99.90;;;;;;5035573;28;20198;-81
2023/01/27 11:55:04;;;;;;;10.80;7.32;;;3.10;99.90;;;;;;5026388;28;20719;-81
2023/01/27 11:57:31;;;;;;;10.40;7.93;;;2.70;99.90;;;;;;5024086;28;20193;-83
2023/01/27 12:00:06;;;;;;;11.35;7.88;;;2.80;99.90;;;;;;5041737;28;20233;-83
2023/01/27 12:02:39;;;;;;;10.50;7.55;;;2.70;99.90;;;;;;5044593;28;20181;-81
2023/01/27 12:05:14;;;;;;;13.82;8.85;;;2.90;99.90;;;;;;5026665;28;20206;-81
2023/01/27 12:07:45;;;;;;;12.05;7.90;;;3.10;99.90;;;;;;5048298;28;20238;-82
2023/01/27 12:10:28;;;;;;;10.85;7.57;;;2.70;99.90;;;;;;5044569;28;20664;-82
2023/01/27 12:12:55;;;;;;;12.93;8.45;;;2.70;99.90;;;;;;5037346;28;20209;-82
2023/01/27 12:15:25;;;;;;;12.55;8.00;;;2.10;99.90;;;;;;5041787;28;20719;-83
2023/01/27 12:17:59;;;;;;;13.48;7.20;;;2.70;99.90;;;;;;5045600;28;20178;-81
2023/01/27 12:20:35;;;;;;;11.90;8.10;;;2.80;99.90;;;;;;5028789;28;20236;-83
2023/01/27 12:23:25;;;;;;;12.35;7.72;;;2.60;99.90;;;;;;5038338;28;20178;-81
2023/01/27 12:25:57;;;;;;;12.38;7.05;;;2.60;99.90;;;;;;5045284;28;20257;-80
2023/01/27 12:28:53;;;;;;;13.25;7.22;;;2.70;99.90;;;;;;5030737;28;20181;-81
2023/01/27 12:31:25;;;;;;;12.15;8.00;;;2.70;99.90;;;;;;5035035;28;20661;-82
2023/01/27 12:34:05;;;;;;;20.95;9.40;;;2.60;99.90;;;;;;5028012;28;20202;-81
2023/01/27 12:36:39;;;;;;;14.50;8.40;;;2.80;99.90;;;;;;5045434;28;20178;-80
2023/01/27 12:39:23;;;;;;;10.55;7.55;;;2.40;99.90;;;;;;5025879;28;20179;-82
2023/01/27 12:41:49;;;;;;;14.45;8.68;;;3.40;99.90;;;;;;5027144;28;20193;-82
2023/01/27 12:44:17;;;;;;;10.85;7.57;;;2.90;99.90;;;;;;5047733;28;21323;-83
2023/01/27 12:46:57;;;;;;;14.07;9.40;;;3.60;99.90;;;;;;5043729;28;20202;-82
2023/01/27 12:49:29;;;;;;;14.82;8.95;;;3.30;99.90;;;;;;5044371;28;20191;-83
2023/01/27 12:51:55;;;;;;;13.20;9.07;;;3.30;99.90;;;;;;5021242;28;20212;-91
2023/01/27 12:54:23;;;;;;;15.60;8.93;;;3.30;99.90;;;;;;5031364;28;20264;-89
2023/01/27 12:56:51;;;;;;;18.38;10.05;;;2.60;99.90;;;;;;5030359;28;20442;-93
2023/01/27 12:59:18;;;;;;;15.77;9.63;;;2.80;99.90;;;;;;5028028;28;20693;-83
2023/01/27 13:02:01;;;;;;;15.02;9.65;;;3.10;99.90;;;;;;5028650;28;20280;-84
2023/01/27 13:04:27;;;;;;;13.75;9.60;;;2.80;99.90;;;;;;5027935;28;20299;-84
2023/01/27 13:06:55;;;;;;;14.98;9.07;;;2.70;99.90;;;;;;5023018;28;20182;-84
2023/01/27 13:09:26;;;;;;;18.17;11.00;;;2.90;99.90;;;;;;5029969;28;20194;-82
2023/01/27 13:11:55;;;;;;;14.20;9.40;;;2.70;99.90;;;;;;5032783;28;20189;-81
2023/01/27 13:14:21;;;;;;;15.00;9.45;;;3.10;99.90;;;;;;5032465;28;20202;-83
2023/01/27 13:16:54;;;;;;;14.87;8.83;;;3.20;99.90;;;;;;5032467;28;20189;-84
2023/01/27 13:19:29;;;;;;;13.93;9.52;;;3.10;99.90;;;;;;5050036;28;20213;-82
2023/01/27 13:21:55;;;;;;;15.88;9.75;;;2.60;99.90;;;;;;5035468;28;20181;-83
2023/01/27 13:24:37;;;;;;;25.25;11.65;;;2.80;99.90;;;;;;5047759;28;20580;-83
2023/01/27 13:27:08;;;;;;;17.27;11.02;;;2.60;99.90;;;;;;5042742;28;20475;-84
2023/01/27 13:29:35;;;;;;;25.45;9.68;;;3.20;99.90;;;;;;5045932;28;20222;-84
2023/01/27 13:32:04;;;;;;;18.20;11.40;;;2.60;99.90;;;;;;5045332;28;20178;-81